Leola, Pennsylvania
Current Conditions -  °F | °C
As of 6:53 AM on Friday 31 Oct 2014 (Local Time) from KLNS Reporting Station
Overcast Overcast  
Wind Chill: 44°   Ceiling: 5500
Heat Index: 44°   Visibility: 10mi
Dew Point: 40°   Wind: 3mph
Humidity: 85%   Direction: 80°E
Pressure: 30.02"   Gusts: NA
Location:  40.09°N, 76.18°W
Report Text: KLNS 311053Z 08003KT 10SM OVC055 07/04 A3002 RMK AO2 SLP166 T00670044 $
Loading
Personal Weather Stations






























Interactive Weather Map
Tropical Storm Tracking
New forecast layout! Learn more

10-Day Weather Forecast

Advertisements
Track Severe Weather on mobile